createdAt,value
2017-11-15T00:00:07.787Z,70.00
2017-11-15T00:01:08.185Z,71.20
2017-11-15T00:02:07.180Z,74.20
2017-11-15T00:03:07.443Z,73.90
2017-11-15T00:04:07.437Z,73.90
2017-11-15T00:05:08.212Z,77.40
2017-11-15T00:06:07.634Z,75.50
2017-11-15T00:07:07.468Z,76.40
2017-11-15T00:08:07.830Z,74.10
2017-11-15T00:09:08.164Z,76.30
2017-11-15T00:10:08.315Z,76.10
2017-11-15T00:11:07.263Z,76.80
2017-11-15T00:12:07.763Z,75.10
2017-11-15T00:13:07.784Z,75.20
2017-11-15T00:14:08.082Z,75.10
2017-11-15T00:15:06.937Z,77.10
2017-11-15T00:16:07.187Z,81.20
2017-11-15T00:17:07.620Z,77.80
2017-11-15T00:18:07.579Z,82.00
2017-11-15T00:19:07.895Z,78.80
2017-11-15T00:20:07.334Z,80.00
2017-11-15T00:21:07.997Z,78.90
2017-11-15T00:22:07.521Z,77.50
2017-11-15T00:23:07.415Z,77.60
2017-11-15T00:24:07.708Z,78.10
2017-11-15T00:25:08.058Z,78.50
2017-11-15T00:26:08.312Z,80.50
2017-11-15T00:27:07.569Z,80.40
2017-11-15T00:28:07.707Z,80.10
2017-11-15T00:29:07.733Z,77.10
2017-11-15T00:30:08.074Z,79.10
2017-11-15T00:31:07.021Z,78.20
2017-11-15T00:32:07.392Z,79.30
2017-11-15T00:33:07.417Z,81.40
2017-11-15T00:34:07.836Z,81.10
2017-11-15T00:35:07.733Z,80.60
2017-11-15T00:36:07.831Z,77.80
2017-11-15T00:37:08.556Z,78.30
2017-11-15T00:38:07.786Z,81.60
2017-11-15T00:39:08.205Z,84.10
2017-11-15T00:40:07.423Z,81.50
2017-11-15T00:41:07.800Z,79.50
2017-11-15T00:42:08.131Z,73.60
2017-11-15T00:43:07.871Z,82.30
2017-11-15T00:44:06.813Z,82.60
2017-11-15T00:45:07.780Z,81.40
2017-11-15T00:46:07.740Z,80.80
2017-11-15T00:47:07.994Z,78.90
2017-11-15T00:48:07.344Z,83.50
2017-11-15T00:49:07.549Z,84.70
2017-11-15T00:50:07.960Z,82.20
2017-11-15T00:51:06.841Z,80.70
2017-11-15T00:52:07.753Z,77.60
2017-11-15T00:53:08.005Z,81.10
2017-11-15T00:54:07.592Z,80.00
2017-11-15T00:55:07.559Z,85.10
2017-11-15T00:56:07.369Z,83.20
2017-11-15T00:57:07.281Z,81.70
2017-11-15T00:58:07.263Z,85.80
2017-11-15T00:59:07.708Z,84.10
2017-11-15T01:00:07.601Z,87.60
2017-11-15T01:01:06.892Z,85.30
2017-11-15T01:02:08.254Z,84.50
2017-11-15T01:03:07.670Z,84.70
2017-11-15T01:04:08.244Z,84.60
2017-11-15T01:05:07.145Z,81.80
2017-11-15T01:06:07.600Z,83.50
2017-11-15T01:07:07.947Z,87.30
2017-11-15T01:08:07.075Z,84.80
2017-11-15T01:09:07.721Z,84.00
2017-11-15T01:10:08.081Z,85.50
2017-11-15T01:11:07.459Z,83.70
2017-11-15T01:12:07.817Z,83.20
2017-11-15T01:13:07.690Z,84.90
2017-11-15T01:14:08.369Z,83.80
2017-11-15T01:15:07.466Z,83.90
2017-11-15T01:16:07.353Z,79.60
2017-11-15T01:17:06.898Z,84.50
2017-11-15T01:18:07.079Z,83.40
2017-11-15T01:19:07.461Z,86.10
2017-11-15T01:20:08.268Z,79.50
2017-11-15T01:21:07.154Z,76.60
2017-11-15T01:22:07.344Z,83.50
2017-11-15T01:23:07.770Z,85.10
2017-11-15T01:24:07.918Z,84.40
2017-11-15T01:25:07.669Z,86.30
2017-11-15T01:26:08.030Z,81.90
2017-11-15T01:27:07.392Z,79.30
2017-11-15T01:28:07.279Z,84.40
2017-11-15T01:29:07.131Z,82.90
2017-11-15T01:30:07.238Z,76.80
2017-11-15T01:31:07.654Z,79.40
2017-11-15T01:32:07.400Z,82.10
2017-11-15T01:33:07.272Z,75.50
2017-11-15T01:34:07.141Z,76.80
2017-11-15T01:35:07.011Z,78.30
2017-11-15T01:36:07.251Z,78.10
2017-11-15T01:37:07.701Z,78.40
2017-11-15T01:38:07.573Z,73.80
2017-11-15T01:39:07.788Z,74.40
2017-11-15T01:40:07.818Z,73.70
2017-11-15T01:41:07.236Z,76.90
2017-11-15T01:42:08.043Z,69.50
2017-11-15T01:43:07.349Z,72.60
2017-11-15T01:44:07.929Z,77.50
2017-11-15T01:45:06.925Z,74.30
2017-11-15T01:46:06.766Z,69.70
2017-11-15T01:47:07.298Z,75.10
2017-11-15T01:48:07.221Z,72.70
2017-11-15T01:49:07.620Z,73.90
2017-11-15T01:50:07.940Z,72.30
2017-11-15T01:51:06.988Z,71.60
2017-11-15T01:52:07.801Z,70.70
2017-11-15T01:53:08.205Z,71.80
2017-11-15T01:54:07.658Z,73.00
2017-11-15T01:55:07.972Z,73.30
2017-11-15T01:56:07.407Z,65.00
2017-11-15T01:57:07.843Z,66.80
2017-11-15T01:58:07.073Z,66.30
2017-11-15T01:59:07.601Z,65.40
2017-11-15T02:00:08.060Z,63.50
2017-11-15T02:01:07.206Z,64.00
2017-11-15T02:02:07.508Z,64.80
2017-11-15T02:03:07.693Z,66.80
2017-11-15T02:04:08.092Z,63.90
2017-11-15T02:05:07.129Z,66.40
2017-11-15T02:06:07.459Z,60.50
2017-11-15T02:07:07.882Z,60.60
2017-11-15T02:08:07.413Z,62.30
2017-11-15T02:09:07.328Z,60.40
2017-11-15T02:10:07.030Z,59.00
2017-11-15T02:11:07.032Z,58.20
2017-11-15T02:12:07.864Z,59.70
2017-11-15T02:13:07.756Z,64.00
2017-11-15T02:14:07.672Z,62.40
2017-11-15T02:15:07.882Z,61.10
2017-11-15T02:16:06.951Z,64.40
2017-11-15T02:17:07.144Z,62.50
2017-11-15T02:18:07.529Z,62.40
2017-11-15T02:19:07.969Z,59.30
2017-11-15T02:20:07.422Z,59.00
2017-11-15T02:21:07.137Z,64.00
2017-11-15T02:22:07.417Z,61.10
2017-11-15T02:23:07.324Z,60.10
2017-11-15T02:24:07.744Z,57.80
2017-11-15T02:25:06.830Z,61.50
2017-11-15T02:26:07.121Z,63.10
2017-11-15T02:27:07.912Z,59.20
2017-11-15T02:28:07.509Z,61.40
2017-11-15T02:29:07.930Z,63.40
2017-11-15T02:30:07.421Z,61.00
2017-11-15T02:31:07.379Z,61.40
2017-11-15T02:32:07.782Z,63.80
2017-11-15T02:33:08.168Z,63.70
2017-11-15T02:34:07.652Z,63.80
2017-11-15T02:35:08.137Z,62.60
2017-11-15T02:36:07.161Z,62.00
2017-11-15T02:37:07.565Z,60.70
2017-11-15T02:38:07.941Z,61.00
2017-11-15T02:39:07.282Z,63.30
2017-11-15T02:40:07.675Z,63.40
2017-11-15T02:41:07.101Z,63.10
2017-11-15T02:42:07.899Z,60.60
2017-11-15T02:43:07.477Z,63.10
2017-11-15T02:44:07.941Z,60.80
2017-11-15T02:45:07.411Z,64.00
2017-11-15T02:46:06.813Z,60.60
2017-11-15T02:47:08.050Z,63.80
2017-11-15T02:48:07.043Z,61.20
2017-11-15T02:49:07.010Z,62.30
2017-11-15T02:50:07.369Z,61.30
2017-11-15T02:51:07.114Z,61.60
2017-11-15T02:52:07.177Z,61.10
2017-11-15T02:53:08.588Z,60.30
2017-11-15T02:54:07.601Z,62.50
2017-11-15T02:55:07.988Z,66.30
2017-11-15T02:56:06.935Z,65.10
2017-11-15T02:57:07.365Z,65.80
2017-11-15T02:58:08.105Z,63.30
2017-11-15T02:59:07.214Z,60.40
2017-11-15T03:00:07.197Z,64.30
2017-11-15T03:01:07.322Z,63.10
2017-11-15T03:02:07.458Z,63.30
2017-11-15T03:03:08.164Z,66.70
2017-11-15T03:04:07.088Z,65.40
2017-11-15T03:05:07.532Z,65.30
2017-11-15T03:06:07.491Z,64.30
2017-11-15T03:07:07.485Z,61.50
2017-11-15T03:08:07.847Z,65.50
2017-11-15T03:09:07.642Z,64.90
2017-11-15T03:10:08.648Z,66.30
2017-11-15T03:11:08.025Z,66.40
2017-11-15T03:12:07.834Z,63.90
2017-11-15T03:13:07.801Z,63.40
2017-11-15T03:14:07.848Z,67.50
2017-11-15T03:15:06.998Z,66.40
2017-11-15T03:16:07.417Z,67.90
2017-11-15T03:17:07.863Z,67.40
2017-11-15T03:18:07.906Z,67.20
2017-11-15T03:19:08.245Z,63.50
2017-11-15T03:20:07.730Z,64.80
2017-11-15T03:21:07.162Z,68.20
2017-11-15T03:22:07.169Z,64.50
2017-11-15T03:23:07.464Z,66.10
2017-11-15T03:24:07.346Z,68.20
2017-11-15T03:25:08.172Z,69.80
2017-11-15T03:26:07.200Z,67.40
2017-11-15T03:27:07.675Z,70.50
2017-11-15T03:28:07.676Z,73.90
2017-11-15T03:29:08.122Z,68.70
2017-11-15T03:30:08.098Z,68.10
2017-11-15T03:31:07.545Z,67.80
2017-11-15T03:32:06.952Z,70.10
2017-11-15T03:33:07.331Z,68.80
2017-11-15T03:34:07.837Z,69.50
2017-11-15T03:35:07.995Z,72.10
2017-11-15T03:36:07.973Z,72.50
2017-11-15T03:37:06.854Z,74.60
2017-11-15T03:38:07.253Z,73.60
2017-11-15T03:39:07.648Z,68.60
2017-11-15T03:40:08.395Z,72.40
2017-11-15T03:41:07.368Z,74.70
2017-11-15T03:42:07.669Z,71.20
2017-11-15T03:43:07.641Z,72.30
2017-11-15T03:44:07.694Z,68.40
2017-11-15T03:45:07.515Z,69.00
2017-11-15T03:46:08.358Z,72.40
2017-11-15T03:47:07.779Z,73.90
2017-11-15T03:48:07.105Z,78.10
2017-11-15T03:49:07.686Z,78.20
2017-11-15T03:50:07.814Z,73.90
2017-11-15T03:51:08.166Z,74.40
2017-11-15T03:52:07.517Z,73.90
2017-11-15T03:53:07.476Z,77.00
2017-11-15T03:54:07.765Z,76.20
2017-11-15T03:55:07.839Z,75.70
2017-11-15T03:56:08.240Z,74.20
2017-11-15T03:57:07.633Z,76.50
2017-11-15T03:58:07.744Z,78.30
2017-11-15T03:59:08.115Z,72.20
2017-11-15T04:00:08.134Z,72.40
2017-11-15T04:01:07.095Z,77.10
2017-11-15T04:02:07.828Z,76.70
2017-11-15T04:03:07.807Z,78.40
2017-11-15T04:04:08.224Z,76.70
2017-11-15T04:05:07.928Z,75.30
2017-11-15T04:06:07.432Z,78.20
2017-11-15T04:07:07.662Z,77.40
2017-11-15T04:08:07.602Z,74.40
2017-11-15T04:09:07.879Z,81.50
2017-11-15T04:10:07.404Z,83.10
2017-11-15T04:11:07.521Z,76.50
2017-11-15T04:12:07.872Z,81.70
2017-11-15T04:13:07.178Z,75.60
2017-11-15T04:14:07.280Z,72.80
2017-11-15T04:15:07.707Z,74.90
2017-11-15T04:16:07.653Z,74.80
2017-11-15T04:17:07.546Z,78.10
2017-11-15T04:18:07.934Z,76.60
2017-11-15T04:19:07.031Z,77.50
2017-11-15T04:20:07.009Z,75.10
2017-11-15T04:21:06.924Z,76.20
2017-11-15T04:22:07.425Z,76.80
2017-11-15T04:23:07.431Z,75.20
2017-11-15T04:24:07.806Z,77.50
2017-11-15T04:25:08.178Z,76.60
2017-11-15T04:26:07.616Z,79.10
2017-11-15T04:27:08.051Z,77.60
2017-11-15T04:28:07.288Z,72.50
2017-11-15T04:29:08.005Z,68.90
2017-11-15T04:30:07.510Z,74.80
2017-11-15T04:31:07.404Z,74.40
2017-11-15T04:32:07.313Z,74.30
2017-11-15T04:33:07.652Z,71.40
2017-11-15T04:34:07.695Z,72.50
2017-11-15T04:35:07.855Z,75.20
2017-11-15T04:36:07.811Z,74.10
2017-11-15T04:37:07.358Z,72.20
2017-11-15T04:38:07.262Z,68.50
2017-11-15T04:39:07.652Z,69.70
2017-11-15T04:40:08.028Z,73.80
2017-11-15T04:41:06.891Z,71.70
2017-11-15T04:42:06.871Z,71.90
2017-11-15T04:43:06.894Z,70.30
2017-11-15T04:44:07.314Z,69.40
2017-11-15T04:45:07.640Z,75.30
2017-11-15T04:46:08.058Z,76.30
2017-11-15T04:47:07.103Z,71.20
2017-11-15T04:48:07.071Z,70.60
2017-11-15T04:49:07.808Z,67.40
2017-11-15T04:50:08.088Z,73.60
2017-11-15T04:51:07.474Z,71.80
2017-11-15T04:52:07.847Z,70.60
2017-11-15T04:53:08.038Z,70.00
2017-11-15T04:54:07.406Z,68.10
2017-11-15T04:55:07.412Z,65.20
2017-11-15T04:56:07.365Z,71.70
2017-11-15T04:57:07.368Z,65.60
2017-11-15T04:58:07.687Z,69.20
2017-11-15T04:59:08.084Z,67.10
2017-11-15T05:00:07.154Z,66.50
2017-11-15T05:01:07.209Z,62.00
2017-11-15T05:02:07.653Z,67.20
2017-11-15T05:03:08.048Z,68.10
2017-11-15T05:04:08.642Z,70.20
2017-11-15T05:05:08.186Z,71.80
2017-11-15T05:06:07.520Z,69.00
2017-11-15T05:07:07.495Z,72.40
2017-11-15T05:08:08.076Z,70.70
2017-11-15T05:09:07.440Z,70.70
2017-11-15T05:10:07.756Z,68.40
2017-11-15T05:11:08.170Z,67.30
2017-11-15T05:12:07.972Z,69.80
2017-11-15T05:13:08.198Z,71.20
2017-11-15T05:14:07.128Z,67.30
2017-11-15T05:15:07.587Z,67.30
2017-11-15T05:16:08.058Z,69.10
2017-11-15T05:17:06.994Z,66.80
2017-11-15T05:18:07.980Z,66.80
2017-11-15T05:19:07.366Z,68.30
2017-11-15T05:20:08.157Z,66.10
2017-11-15T05:21:06.990Z,70.80
2017-11-15T05:22:07.913Z,69.20
2017-11-15T05:23:06.841Z,71.80
2017-11-15T05:24:08.227Z,65.90
2017-11-15T05:25:08.116Z,67.40
2017-11-15T05:26:07.381Z,68.30
2017-11-15T05:27:07.714Z,70.40
2017-11-15T05:28:08.140Z,69.60
2017-11-15T05:29:07.052Z,70.30
2017-11-15T05:30:07.227Z,70.70
2017-11-15T05:31:07.647Z,69.60
2017-11-15T05:32:07.705Z,71.70
2017-11-15T05:33:08.170Z,66.50
2017-11-15T05:34:07.108Z,68.60
2017-11-15T05:35:07.689Z,69.60
2017-11-15T05:36:07.702Z,68.50
2017-11-15T05:37:07.728Z,66.80
2017-11-15T05:38:08.167Z,68.60
2017-11-15T05:39:07.729Z,66.50
2017-11-15T05:40:08.168Z,68.60
2017-11-15T05:41:07.116Z,64.70
2017-11-15T05:42:07.686Z,68.50
2017-11-15T05:43:07.682Z,67.50
2017-11-15T05:44:07.640Z,68.10
2017-11-15T05:45:06.835Z,66.50
2017-11-15T05:46:08.027Z,62.80
2017-11-15T05:47:07.400Z,68.10
2017-11-15T05:48:07.697Z,65.30
2017-11-15T05:49:07.699Z,68.40
2017-11-15T05:50:07.542Z,65.90
2017-11-15T05:51:07.547Z,67.70
2017-11-15T05:52:08.379Z,67.20
2017-11-15T05:53:07.710Z,65.10
2017-11-15T05:54:08.067Z,66.40
2017-11-15T05:55:07.072Z,67.30
2017-11-15T05:56:07.570Z,68.00
2017-11-15T05:57:07.665Z,69.00
2017-11-15T05:58:08.201Z,69.20
2017-11-15T05:59:07.142Z,65.90
2017-11-15T06:00:07.589Z,69.80
2017-11-15T06:01:07.998Z,64.30
2017-11-15T06:02:06.853Z,67.70
2017-11-15T06:03:08.112Z,65.60
2017-11-15T06:04:07.526Z,68.70
2017-11-15T06:05:07.509Z,68.70
2017-11-15T06:06:07.794Z,69.50
2017-11-15T06:07:07.257Z,71.60
2017-11-15T06:08:08.176Z,69.20
2017-11-15T06:09:07.876Z,67.30
2017-11-15T06:10:07.260Z,72.10
2017-11-15T06:11:07.731Z,69.30
2017-11-15T06:12:07.006Z,66.80
2017-11-15T06:13:08.132Z,68.80
2017-11-15T06:14:08.140Z,68.60
2017-11-15T06:15:07.685Z,67.00
2017-11-15T06:16:07.513Z,66.20
2017-11-15T06:17:07.822Z,70.00
2017-11-15T06:18:07.774Z,69.80
2017-11-15T06:19:07.575Z,66.40
2017-11-15T06:20:07.628Z,72.60
2017-11-15T06:21:08.226Z,66.40
2017-11-15T06:22:07.478Z,70.80
2017-11-15T06:23:07.739Z,70.50
2017-11-15T06:24:08.280Z,69.90
2017-11-15T06:25:07.447Z,69.00
2017-11-15T06:26:07.300Z,70.60
2017-11-15T06:27:07.301Z,70.00
2017-11-15T06:28:07.331Z,72.50
2017-11-15T06:29:07.689Z,72.50
2017-11-15T06:30:08.647Z,71.00
2017-11-15T06:31:08.022Z,71.80
2017-11-15T06:32:07.157Z,70.00
2017-11-15T06:33:07.746Z,71.70
2017-11-15T06:34:08.262Z,72.90
2017-11-15T06:35:07.833Z,68.20
2017-11-15T06:36:07.835Z,73.10
2017-11-15T06:37:08.120Z,72.70
2017-11-15T06:38:07.562Z,71.60
2017-11-15T06:39:06.842Z,70.20
2017-11-15T06:40:07.800Z,71.00
2017-11-15T06:41:08.461Z,71.80
2017-11-15T06:42:08.057Z,70.30
2017-11-15T06:43:07.097Z,72.40
2017-11-15T06:44:07.050Z,68.20
2017-11-15T06:45:07.344Z,73.60
2017-11-15T06:46:07.690Z,71.40
2017-11-15T06:47:07.961Z,72.50
2017-11-15T06:48:07.581Z,72.70
2017-11-15T06:49:07.937Z,67.60
2017-11-15T06:50:07.275Z,69.20
2017-11-15T06:51:07.899Z,70.70
2017-11-15T06:52:07.287Z,74.00
2017-11-15T06:53:08.100Z,75.60
2017-11-15T06:54:07.300Z,73.20
2017-11-15T06:55:07.388Z,69.30
2017-11-15T06:56:07.364Z,70.20
2017-11-15T06:57:07.383Z,69.20
2017-11-15T06:58:07.650Z,70.90
2017-11-15T06:59:07.490Z,72.20
2017-11-15T07:00:07.533Z,72.00
2017-11-15T07:01:07.293Z,74.60
2017-11-15T07:02:07.339Z,75.10
2017-11-15T07:03:07.668Z,72.40
2017-11-15T07:04:07.986Z,71.90
2017-11-15T07:05:07.338Z,71.90
2017-11-15T07:06:07.696Z,69.70
2017-11-15T07:07:07.623Z,71.20
2017-11-15T07:08:08.214Z,72.60
2017-11-15T07:09:07.389Z,70.10
2017-11-15T07:10:07.332Z,73.40
2017-11-15T07:11:07.303Z,72.50
2017-11-15T07:12:07.644Z,69.60
2017-11-15T07:13:07.669Z,71.00
2017-11-15T07:14:08.541Z,70.60
2017-11-15T07:15:07.972Z,69.50
2017-11-15T07:16:06.990Z,69.50
2017-11-15T07:17:07.372Z,72.40
2017-11-15T07:18:07.027Z,68.40
2017-11-15T07:19:07.562Z,72.30
2017-11-15T07:20:08.395Z,72.70
2017-11-15T07:21:07.785Z,72.50
2017-11-15T07:22:08.233Z,70.20
2017-11-15T07:22:28.775Z,69.90
2017-11-15T07:23:28.814Z,70.90
2017-11-15T07:24:29.083Z,69.80
2017-11-15T07:25:29.951Z,69.20
2017-11-15T07:26:29.619Z,66.60
2017-11-15T07:27:28.977Z,68.10
2017-11-15T07:28:28.903Z,67.60
2017-11-15T07:29:28.978Z,68.00
2017-11-15T07:30:28.796Z,66.50
2017-11-15T07:31:29.670Z,68.60
2017-11-15T07:32:29.051Z,65.90
2017-11-15T07:33:29.547Z,61.90
2017-11-15T07:34:28.601Z,64.20
2017-11-15T07:35:29.140Z,65.90
2017-11-15T07:36:29.360Z,59.30
2017-11-15T07:37:28.456Z,60.40
2017-11-15T07:38:28.818Z,60.20
2017-11-15T07:39:29.165Z,60.70
2017-11-15T07:40:29.190Z,61.10
2017-11-15T07:41:30.209Z,59.80
2017-11-15T07:42:28.895Z,61.00
2017-11-15T07:43:29.273Z,62.90
2017-11-15T07:44:28.934Z,58.60
2017-11-15T07:45:30.065Z,62.10
2017-11-15T07:46:29.905Z,63.30
2017-11-15T07:47:29.014Z,65.80
2017-11-15T07:48:29.554Z,62.40
2017-11-15T07:49:29.355Z,58.60
2017-11-15T07:50:28.785Z,61.90
2017-11-15T07:51:28.836Z,61.50
2017-11-15T07:52:28.828Z,61.10
2017-11-15T07:53:28.903Z,60.70
2017-11-15T07:54:29.009Z,61.10
2017-11-15T07:55:29.464Z,61.50
2017-11-15T07:56:28.383Z,60.90
2017-11-15T07:57:29.626Z,62.00
2017-11-15T07:58:28.593Z,56.40
2017-11-15T07:59:28.771Z,59.00
2017-11-15T08:00:28.876Z,56.70
2017-11-15T08:01:29.706Z,61.10
2017-11-15T08:02:29.280Z,59.60
2017-11-15T08:03:28.428Z,57.60
2017-11-15T08:04:28.406Z,58.90
2017-11-15T08:05:28.879Z,59.30
2017-11-15T08:06:29.076Z,59.30
2017-11-15T08:07:29.608Z,55.90
2017-11-15T08:08:29.192Z,61.20
2017-11-15T08:09:29.052Z,58.30
2017-11-15T08:10:29.075Z,57.10
2017-11-15T08:11:28.846Z,58.50
2017-11-15T08:12:29.130Z,54.90
2017-11-15T08:13:29.708Z,57.90
2017-11-15T08:14:28.657Z,61.30
2017-11-15T08:15:29.107Z,58.60
2017-11-15T08:16:29.553Z,59.60
2017-11-15T08:17:28.994Z,59.70
2017-11-15T08:18:28.845Z,61.00
2017-11-15T08:19:29.407Z,59.40
2017-11-15T08:20:29.000Z,62.30
2017-11-15T08:21:29.666Z,61.70
2017-11-15T08:22:29.250Z,60.30
2017-11-15T08:23:28.381Z,60.60
2017-11-15T08:24:28.422Z,62.60
2017-11-15T08:25:28.425Z,61.40
2017-11-15T08:26:28.895Z,63.30
2017-11-15T08:27:29.420Z,65.00
2017-11-15T08:28:28.410Z,62.40
2017-11-15T08:29:28.376Z,62.60
2017-11-15T08:30:29.000Z,64.90
2017-11-15T08:31:29.145Z,63.90
2017-11-15T08:32:29.229Z,69.40
2017-11-15T08:33:28.727Z,64.20
2017-11-15T08:34:28.872Z,65.10
2017-11-15T08:35:29.378Z,64.50
2017-11-15T08:36:28.790Z,68.60
2017-11-15T08:37:29.400Z,64.30
2017-11-15T08:38:29.671Z,65.90
2017-11-15T08:39:28.953Z,66.60
2017-11-15T08:40:29.462Z,66.30
2017-11-15T08:41:28.919Z,68.70
2017-11-15T08:42:28.999Z,65.00
2017-11-15T08:43:29.266Z,67.60
2017-11-15T08:44:28.812Z,65.30
2017-11-15T08:45:29.231Z,61.20
2017-11-15T08:46:29.761Z,61.70
2017-11-15T08:47:28.936Z,66.70
2017-11-15T08:48:29.042Z,65.40
2017-11-15T08:49:29.568Z,68.10
2017-11-15T08:50:29.101Z,61.90
2017-11-15T08:51:29.295Z,66.40
2017-11-15T08:52:28.984Z,66.50
2017-11-15T08:53:29.046Z,63.60
2017-11-15T08:54:29.321Z,63.30
2017-11-15T08:55:28.493Z,64.20
2017-11-15T08:56:29.003Z,64.40
2017-11-15T08:57:29.109Z,59.20
2017-11-15T08:58:29.373Z,61.90
2017-11-15T08:59:28.841Z,59.00
2017-11-15T09:00:28.994Z,63.90
2017-11-15T09:01:28.603Z,63.00
2017-11-15T09:02:28.713Z,63.90
2017-11-15T09:03:28.909Z,61.40
2017-11-15T09:04:29.124Z,61.10
2017-11-15T09:05:29.621Z,62.80
2017-11-15T09:06:29.339Z,65.20
2017-11-15T09:07:28.833Z,61.60
2017-11-15T09:08:29.352Z,58.00
2017-11-15T09:09:28.887Z,60.60
2017-11-15T09:10:29.093Z,60.40
2017-11-15T09:11:29.626Z,61.80
2017-11-15T09:12:29.130Z,60.70
2017-11-15T09:13:29.696Z,57.90
2017-11-15T09:14:29.160Z,61.00
2017-11-15T09:15:29.337Z,57.20
2017-11-15T09:16:28.925Z,60.20
2017-11-15T09:17:29.445Z,59.10
2017-11-15T09:18:29.137Z,61.50
2017-11-15T09:19:29.768Z,59.10
2017-11-15T09:20:28.630Z,55.50
2017-11-15T09:21:28.772Z,57.90
2017-11-15T09:22:28.814Z,56.80
2017-11-15T09:23:28.974Z,58.30
2017-11-15T09:24:29.698Z,56.20
2017-11-15T09:25:29.107Z,56.90
2017-11-15T09:26:29.605Z,56.40
2017-11-15T09:27:28.871Z,57.30
2017-11-15T09:28:29.372Z,57.10
2017-11-15T09:29:29.239Z,60.10
2017-11-15T09:30:28.890Z,57.40
2017-11-15T09:31:28.475Z,57.50
2017-11-15T09:32:29.080Z,57.50
2017-11-15T09:33:29.645Z,59.40
2017-11-15T09:34:29.131Z,58.30
2017-11-15T09:35:28.813Z,59.50
2017-11-15T09:36:29.029Z,59.80
2017-11-15T09:37:29.043Z,60.30
2017-11-15T09:38:29.561Z,56.90
2017-11-15T09:39:29.239Z,57.90
2017-11-15T09:40:30.232Z,59.60
2017-11-15T09:41:28.774Z,58.40
2017-11-15T09:42:30.104Z,58.40
2017-11-15T09:43:29.216Z,58.90
2017-11-15T09:44:29.693Z,58.80
2017-11-15T09:45:29.352Z,57.40
2017-11-15T09:46:28.729Z,58.60
2017-11-15T09:47:29.303Z,58.10
2017-11-15T09:48:28.916Z,61.10
2017-11-15T09:49:29.369Z,60.20
2017-11-15T09:50:28.638Z,59.70
2017-11-15T09:51:29.591Z,61.30
2017-11-15T09:52:28.776Z,61.20
2017-11-15T09:53:28.887Z,64.20
2017-11-15T09:54:28.975Z,63.00
2017-11-15T09:55:29.977Z,63.70
2017-11-15T09:56:29.727Z,65.40
2017-11-15T09:57:29.131Z,57.60
2017-11-15T09:58:29.447Z,62.50
2017-11-15T09:59:28.431Z,60.00
2017-11-15T10:00:28.467Z,60.90
2017-11-15T10:01:29.031Z,60.20
2017-11-15T10:02:28.732Z,60.90
2017-11-15T10:03:28.889Z,58.50
2017-11-15T10:04:30.507Z,61.10
2017-11-15T10:05:29.293Z,63.20
2017-11-15T10:06:28.776Z,60.50
2017-11-15T10:07:29.458Z,60.30
2017-11-15T10:08:28.890Z,60.20
2017-11-15T10:09:29.081Z,60.10
2017-11-15T10:10:28.926Z,59.10
2017-11-15T10:11:29.589Z,60.40
2017-11-15T10:12:28.677Z,57.40
2017-11-15T10:13:28.836Z,59.00
2017-11-15T10:14:29.204Z,55.20
2017-11-15T10:15:30.287Z,62.20
2017-11-15T10:16:28.392Z,55.70
2017-11-15T10:17:28.771Z,58.30
2017-11-15T10:18:29.031Z,60.60
2017-11-15T10:19:29.537Z,58.30
2017-11-15T10:20:29.480Z,59.20
2017-11-15T10:21:28.948Z,56.70
2017-11-15T10:22:28.726Z,57.00
2017-11-15T10:23:30.087Z,57.30
2017-11-15T10:24:28.319Z,56.80
2017-11-15T10:25:28.294Z,57.40
2017-11-15T10:26:28.839Z,58.40
2017-11-15T10:27:29.029Z,58.10
2017-11-15T10:28:29.560Z,58.50
2017-11-15T10:29:28.881Z,62.10
2017-11-15T10:30:28.822Z,57.90
2017-11-15T10:31:29.383Z,55.20
2017-11-15T10:32:28.506Z,55.40
2017-11-15T10:33:28.570Z,56.20
2017-11-15T10:34:29.036Z,57.80
2017-11-15T10:35:29.107Z,59.00
2017-11-15T10:36:29.681Z,56.30
2017-11-15T10:37:29.289Z,56.60
2017-11-15T10:38:28.377Z,56.30
2017-11-15T10:39:28.917Z,57.30
2017-11-15T10:40:29.636Z,56.20
2017-11-15T10:41:28.828Z,57.10
2017-11-15T10:42:29.423Z,56.40
2017-11-15T10:43:28.952Z,56.70
2017-11-15T10:44:29.482Z,55.80
2017-11-15T10:45:28.419Z,57.70
2017-11-15T10:46:28.546Z,57.40
2017-11-15T10:47:29.017Z,57.00
2017-11-15T10:48:29.485Z,57.20
2017-11-15T10:49:29.002Z,54.50
2017-11-15T10:50:30.187Z,56.00
2017-11-15T10:51:29.576Z,53.10
2017-11-15T10:52:29.074Z,53.70
2017-11-15T10:53:29.290Z,55.30
2017-11-15T10:54:28.555Z,54.90
2017-11-15T10:55:28.715Z,54.00
2017-11-15T10:56:29.273Z,57.80
2017-11-15T10:57:28.979Z,55.50
2017-11-15T10:58:29.228Z,52.20
2017-11-15T10:59:28.859Z,51.90
2017-11-15T11:00:29.023Z,53.80
2017-11-15T11:01:29.837Z,54.70
2017-11-15T11:02:30.097Z,54.70
2017-11-15T11:03:29.115Z,55.90
2017-11-15T11:04:29.214Z,51.90
2017-11-15T11:05:28.873Z,53.30
2017-11-15T11:06:29.412Z,53.50
2017-11-15T11:07:28.411Z,53.40
2017-11-15T11:08:28.475Z,55.40
2017-11-15T11:09:29.106Z,52.80
2017-11-15T11:10:29.452Z,52.90
2017-11-15T11:11:28.670Z,54.40
2017-11-15T11:12:29.125Z,54.50
2017-11-15T11:13:29.509Z,52.20
2017-11-15T11:14:28.525Z,48.80
2017-11-15T11:15:30.448Z,50.10
2017-11-15T11:16:28.449Z,52.40
2017-11-15T11:17:28.469Z,53.90
2017-11-15T11:18:28.656Z,52.80
2017-11-15T11:19:29.168Z,57.00
2017-11-15T11:20:29.648Z,53.40
2017-11-15T11:21:28.830Z,54.00
2017-11-15T11:22:29.064Z,55.40
2017-11-15T11:23:29.507Z,53.30
2017-11-15T11:24:29.867Z,49.60
2017-11-15T11:25:29.179Z,48.30
2017-11-15T11:26:29.454Z,49.30
2017-11-15T11:27:28.860Z,50.80
2017-11-15T11:28:29.405Z,53.70
2017-11-15T11:29:29.143Z,53.70
2017-11-15T11:30:30.072Z,51.70
2017-11-15T11:31:28.787Z,52.30
2017-11-15T11:32:29.374Z,53.10
2017-11-15T11:33:29.072Z,51.00
2017-11-15T11:34:29.301Z,53.30
2017-11-15T11:35:28.918Z,53.10
2017-11-15T11:36:29.593Z,51.60
2017-11-15T11:37:28.823Z,51.00
2017-11-15T11:38:29.034Z,53.00
2017-11-15T11:39:28.907Z,50.90
2017-11-15T11:40:29.322Z,51.60
2017-11-15T11:41:28.994Z,52.20
2017-11-15T11:42:29.428Z,53.80
2017-11-15T11:43:29.097Z,51.90
2017-11-15T11:44:29.433Z,47.90
2017-11-15T11:45:29.677Z,46.10
2017-11-15T11:46:29.003Z,47.90
2017-11-15T11:47:29.435Z,50.50
2017-11-15T11:48:28.754Z,50.00
2017-11-15T11:49:29.370Z,49.90
2017-11-15T11:50:28.592Z,51.70
2017-11-15T11:51:28.976Z,52.30
2017-11-15T11:52:29.607Z,50.70
2017-11-15T11:53:28.920Z,51.80
2017-11-15T11:54:29.430Z,48.80
2017-11-15T11:55:29.412Z,50.00
2017-11-15T11:56:29.115Z,49.60
2017-11-15T11:57:29.391Z,49.80
2017-11-15T11:58:28.974Z,48.70
2017-11-15T11:59:29.703Z,49.70
2017-11-15T12:00:29.049Z,46.00
2017-11-15T12:01:29.650Z,47.50
2017-11-15T12:02:28.818Z,47.90
2017-11-15T12:03:29.341Z,51.00
2017-11-15T12:04:28.516Z,48.50
2017-11-15T12:05:29.499Z,47.10
2017-11-15T12:06:29.340Z,47.20
2017-11-15T12:07:28.496Z,45.80
2017-11-15T12:08:29.716Z,47.70
2017-11-15T12:09:28.946Z,45.50
2017-11-15T12:10:29.217Z,44.60
2017-11-15T12:11:28.821Z,47.50
2017-11-15T12:12:29.479Z,46.60
2017-11-15T12:13:28.848Z,45.70
2017-11-15T12:14:29.016Z,46.90
2017-11-15T12:15:29.702Z,47.50
2017-11-15T12:16:29.453Z,45.10
2017-11-15T12:17:28.766Z,45.30
2017-11-15T12:18:29.258Z,45.60
2017-11-15T12:19:29.826Z,45.40
2017-11-15T12:20:28.899Z,45.80
2017-11-15T12:21:29.031Z,45.60
2017-11-15T12:22:29.435Z,47.20
2017-11-15T12:23:29.023Z,45.30
2017-11-15T12:24:29.587Z,46.40
2017-11-15T12:25:29.153Z,45.00
2017-11-15T12:26:29.701Z,46.30
2017-11-15T12:27:28.850Z,46.40
2017-11-15T12:28:28.975Z,46.70
2017-11-15T12:29:29.527Z,45.70
2017-11-15T12:30:28.413Z,45.20
2017-11-15T12:31:29.843Z,44.40
2017-11-15T12:32:28.975Z,46.60
2017-11-15T12:33:30.083Z,48.20
2017-11-15T12:34:29.348Z,44.80
2017-11-15T12:35:28.270Z,43.80
2017-11-15T12:36:29.538Z,44.80
2017-11-15T12:37:28.825Z,46.70
2017-11-15T12:38:29.037Z,47.70
2017-11-15T12:39:29.988Z,45.80
2017-11-15T12:40:29.572Z,44.20
2017-11-15T12:41:29.192Z,47.40
2017-11-15T12:42:29.517Z,47.80
2017-11-15T12:43:28.894Z,48.70
2017-11-15T12:44:30.734Z,48.90
2017-11-15T12:45:30.607Z,49.30
2017-11-15T12:46:29.105Z,48.10
2017-11-15T12:47:29.383Z,50.10
2017-11-15T12:48:28.423Z,47.90
2017-11-15T12:49:28.392Z,48.00
2017-11-15T12:50:28.495Z,49.00
2017-11-15T12:51:28.814Z,49.90